• Join FlightAware (Why Join?)
  • Login
  • US Flag 
06:51PM EDT


 

Airport Tracker/Info


-or-


 

Live Flight TrackerFlight Track Log ✈ N598AT ✈ 16-Jun-2013 ✈ KCRG - KMTH

Flight Track Log - Related Links

Times and Time Zones

All times are in EDT time to prevent confusion due to time zone crossing. See the N598AT flight status page for this flight to view local times or setup timezone preferences in your user account.

Time Position Orientation Groundspeed Altitude Reporting Facility
EDT Latitude Longitude Course Direction KTS MPH feet Rate Location/Type
02:24PM 30.3278 -81.5064 160° South 123 142 400  Level Jacksonville Center
02:25PM 30.3089 -81.4850 136° Southeast 136 157 1,500 1,380 Climbing Jacksonville Center
02:26PM 30.2792 -81.4444 130° Southeast 143 165 3,000 1,200 Climbing Jacksonville Center
02:27PM 30.2517 -81.4208 143° Southeast 157 181 4,000 1,080 Climbing Jacksonville Center
02:28PM 30.2178 -81.3806 134° Southeast 173 199 5,100 1,200 Climbing Jacksonville Center
02:29PM 30.1839 -81.3378 132° Southeast 192 221 6,500 1,440 Climbing Jacksonville Center
02:30PM 29.9996 -81.3736 160° South  Level FlightAware Approximate
02:30PM 30.1358 -81.3219 164° South 177 204 8,000  Level Jacksonville Center
02:31PM 30.0939 -81.3128 169° South 162 186 9,600 1,440 Climbing Jacksonville Center
02:32PM 30.0478 -81.3017 168° South 162 186 10,900 1,200 Climbing Jacksonville Center
02:33PM 30.0039 -81.2903 167° South 162 186 12,100 1,200 Climbing Jacksonville Center
02:34PM 29.9597 -81.2792 168° South 162 186 13,400 1,200 Climbing Jacksonville Center
02:35PM 29.9158 -81.2678 167° South 162 186 14,600 1,080 Climbing Jacksonville Center
02:36PM 29.8697 -81.2567 168° South 162 186 15,600 900 Climbing Jacksonville Center
02:37PM 29.8217 -81.2456 169° South 162 186 16,400 780 Climbing Jacksonville Center
02:38PM 29.7714 -81.2344 169° South 169 194 17,200 660 Climbing Jacksonville Center
02:39PM 29.7211 -81.2208 167° South 180 207 17,800 600 Climbing Jacksonville Center
02:40PM 29.6731 -81.2075 166° South 185 213 18,500 2,100 Climbing Jacksonville Center
02:41PM 29.6206 -81.1964 170° South 185 213 22,000 660 Climbing Jacksonville Center
02:42PM 29.5703 -81.1831 167° South 185 213 19,900 -840 Descending Jacksonville Center
02:43PM 29.5181 -81.1694 167° South 185 213 20,400 480 Climbing Jacksonville Center
02:44PM 29.4739 -81.1558 165° South 185 213 20,900 480 Climbing Jacksonville Center
02:45PM 29.4194 -81.1425 168° South 185 213 21,400 480 Climbing Jacksonville Center
02:46PM 29.3672 -81.1317 170° South 191 220 21,900 300 Climbing Jacksonville Center
02:47PM 29.3083 -81.1136 165° South 203 234 22,000  Climbing Jacksonville Center
02:48PM 29.2519 -81.0956 164° South 208 239 22,000  Level Jacksonville Center
02:49PM 29.1908 -81.0706 160° South 214 246 22,000  Level Jacksonville Center
02:50PM 29.1322 -81.0431 158° South 224 258 22,000  Level Jacksonville Center
02:51PM 29.0339 -80.9958 157° South 236 272 22,000  Level Miami Center
02:52PM 28.9761 -80.9678 157° South 236 272 22,000  Level Miami Center
02:53PM 28.9186 -80.9419 159° South 230 265 22,000  Level Miami Center
02:54PM 28.8672 -80.9139 154° Southeast 218 251 22,000  Level Miami Center
02:55PM 28.8033 -80.8903 162° South 218 251 22,000  Level Miami Center
02:56PM 28.7433 -80.8692 163° South 225 259 22,000  Level Miami Center
02:57PM 28.6856 -80.8481 162° South 225 259 22,000  Level Miami Center
02:58PM 28.6294 -80.8414 174° South 225 259 22,000  Level Miami Center
02:59PM 28.5708 -80.8486 186° South 220 253 22,000  Level Miami Center
03:00PM 28.5081 -80.8536 184° South 220 253 22,000  Level Miami Center
03:01PM 28.4453 -80.8583 184° South 220 253 22,000  Level Miami Center
03:02PM 28.3825 -80.8633 184° South 220 253 22,000  Level Miami Center
03:03PM 28.3239 -80.8731 188° South 220 253 22,000  Level Miami Center
03:04PM 28.2631 -80.8803 186° South 220 253 22,000  Level Miami Center
03:05PM 28.2025 -80.8875 186° South 220 253 22,000  Level Miami Center
03:06PM 28.1356 -80.8944 185° South 220 253 22,000  Level Miami Center
03:07PM 28.0811 -80.8997 185° South 220 253 22,000  Level Miami Center
03:08PM 28.0203 -80.9069 186° South 220 253 22,000  Level Miami Center
03:09PM 27.9553 -80.9139 185° South 220 253 22,000  Level Miami Center
03:10PM 27.8947 -80.9189 184° South 220 253 22,000  Level Miami Center
03:11PM 27.8342 -80.9236 184° South 225 259 22,000  Level Miami Center
03:12PM 27.7692 -80.9308 186° South 225 259 22,000  Level Miami Center
03:13PM 27.7086 -80.9333 182° South 225 259 22,000  Level Miami Center
03:14PM 27.6500 -80.9383 184° South 225 259 22,000  Level Miami Center
03:15PM 27.5872 -80.9431 184° South 225 259 22,000  Level Miami Center
03:16PM 27.5244 -80.9525 188° South 225 259 22,000  Level Miami Center
03:17PM 27.4594 -80.9594 185° South 225 259 22,000  Level Miami Center
03:18PM 27.3967 -80.9667 186° South 225 259 22,000  Level Miami Center
03:19PM 27.3358 -80.9739 186° South 225 259 22,000  Level Miami Center
03:20PM 27.2814 -80.9811 187° South 220 253 22,000  Level Miami Center
03:21PM 27.2186 -80.9883 186° South 220 253 22,000  Level Miami Center
03:22PM 27.1578 -80.9956 186° South 225 259 22,000  Level Miami Center
03:23PM 27.0950 -81.0025 186° South 225 259 22,000  Level Miami Center
03:24PM 27.0342 -81.0075 184° South 225 259 22,000  Level Miami Center
03:25PM 26.9714 -81.0169 188° South 225 259 22,000  Level Miami Center
03:26PM 26.9106 -81.0217 184° South 220 253 22,000  Level Miami Center
03:27PM 26.8458 -81.0286 185° South 220 253 22,000  Level Miami Center
03:28PM 26.7831 -81.0333 184° South 225 259 22,000  Level Miami Center
03:29PM 26.7139 -81.0425 187° South 225 259 22,000  Level Miami Center
03:30PM 26.6572 -81.0475 185° South 230 265 22,000  Level Miami Center
03:31PM 26.5881 -81.0544 185° South 230 265 22,000  Level Miami Center
03:32PM 26.5253 -81.0614 186° South 235 270 22,000  Level Miami Center
03:33PM 26.4644 -81.0686 186° South 235 270 22,000  Level Miami Center
03:34PM 26.3994 -81.0778 187° South 230 265 22,000  Level Miami Center
03:35PM 26.3347 -81.0847 185° South 230 265 22,000  Level Miami Center
03:36PM 26.2717 -81.0917 186° South 230 265 22,000  Level Miami Center
03:37PM 26.2111 -81.0967 184° South 235 270 22,000  Level Miami Center
03:38PM 26.1464 -81.0989 182° South 235 270 22,000 -240 Level Miami Center
03:39PM 26.0878 -81.0969 178° South 235 270 21,600 -660 Descending Miami Center
03:40PM 26.0169 -81.0942 178° South 241 277 20,700 -960 Descending Miami Center
03:41PM 25.9439 -81.0939 180° South 253 291 19,700 -1,020 Descending Miami Center
03:42PM 25.8667 -81.0914 178° South 263 303 18,700 -960 Descending Miami Center
03:43PM 25.7894 -81.0886 178° South 275 316 17,800 -960 Descending Miami Center
03:44PM 25.7122 -81.0906 181° South 275 316 16,800 -1,020 Descending Miami Center
03:45PM 25.6408 -81.1017 188° South 275 316 15,800 -1,020 Descending Miami Center
03:46PM 25.5753 -81.1294 201° Southwest 259 298 14,800 -1,020 Descending Miami Center
03:47PM 25.5178 -81.1667 210° Southwest 246 283 13,800 -1,020 Descending Miami Center
03:48PM 25.4683 -81.2178 223° Southwest 246 283 12,800 -1,020 Descending Miami Center
03:49PM 25.4167 -81.2642 219° Southwest 246 283 11,800 -1,020 Descending Miami Center
03:50PM 25.3522 -81.2525 171° South 216 249 10,800 -1,020 Descending Miami Center
03:51PM 25.2861 -81.2342 166° South 221 254 9,800 -1,020 Descending Miami Center
03:52PM 25.2239 -81.2136 163° South 234 269 8,800 -1,080 Descending Miami Center
03:53PM 25.1539 -81.1881 162° South 239 275 7,700 -1,140 Descending Miami Center
03:54PM 25.0939 -81.1675 163° South 239 275 6,600 -1,200 Descending Miami Center
03:55PM 25.0317 -81.1494 165° South 239 275 5,300 -1,380 Descending Miami Center
03:56PM 24.9717 -81.1289 163° South 239 275 3,900 -1,440 Descending Miami Center